createdAt,value
2023-05-24T00:01:25.573Z,14.65
2023-05-24T00:03:53.589Z,14.52
2023-05-24T00:06:23.115Z,15.98
2023-05-24T00:08:50.853Z,15.75
2023-05-24T00:11:18.579Z,16.67
2023-05-24T00:13:46.324Z,17.15
2023-05-24T00:16:14.061Z,17.52
2023-05-24T00:18:42.005Z,18.77
2023-05-24T00:21:09.721Z,20.25
2023-05-24T00:23:39.193Z,20.35
2023-05-24T00:26:07.095Z,20.52
2023-05-24T00:28:34.827Z,21.38
2023-05-24T00:31:02.646Z,22.92
2023-05-24T00:33:30.378Z,23.92
2023-05-24T00:35:58.299Z,23.30
2023-05-24T00:38:26.310Z,24.63
2023-05-24T00:40:56.276Z,25.08
2023-05-24T00:43:24.190Z,26.27
2023-05-24T00:45:53.031Z,27.65
2023-05-24T00:48:22.632Z,27.27
2023-05-24T00:50:50.949Z,27.95
2023-05-24T00:53:18.877Z,28.50
2023-05-24T00:55:46.785Z,30.15
2023-05-24T00:58:15.923Z,29.52
2023-05-24T01:00:43.770Z,30.38
2023-05-24T01:03:11.588Z,31.33
2023-05-24T01:05:39.350Z,33.65
2023-05-24T01:08:12.190Z,31.70
2023-05-24T01:10:41.865Z,32.65
2023-05-24T01:13:16.590Z,34.92
2023-05-24T01:15:47.176Z,36.38
2023-05-24T01:18:17.132Z,36.13
2023-05-24T01:20:45.193Z,36.25
2023-05-24T01:23:32.165Z,36.88
2023-05-24T01:26:22.166Z,37.30
2023-05-24T01:28:51.272Z,38.13
2023-05-24T01:31:19.538Z,41.17
2023-05-24T01:33:50.486Z,41.03
2023-05-24T01:36:20.989Z,41.65
2023-05-24T01:38:48.757Z,41.90
2023-05-24T01:41:28.119Z,43.97
2023-05-24T01:44:03.698Z,45.13
2023-05-24T01:46:36.166Z,46.78
2023-05-24T01:49:18.563Z,45.10
2023-05-24T01:51:50.294Z,47.15
2023-05-24T01:54:18.794Z,47.55
2023-05-24T01:56:46.501Z,48.85
2023-05-24T01:59:15.562Z,48.25
2023-05-24T02:01:43.319Z,48.85
2023-05-24T02:04:11.233Z,49.03
2023-05-24T02:06:39.050Z,49.35
2023-05-24T02:09:09.149Z,51.47
2023-05-24T02:11:36.870Z,50.28
2023-05-24T02:14:04.598Z,50.70
2023-05-24T02:16:33.730Z,50.40
2023-05-24T02:19:01.465Z,51.13
2023-05-24T02:21:29.250Z,51.75
2023-05-24T02:23:57.010Z,52.25
2023-05-24T02:26:24.749Z,51.42
2023-05-24T02:28:52.464Z,52.85
2023-05-24T02:31:21.566Z,50.92
2023-05-24T02:33:51.031Z,51.95
2023-05-24T02:36:18.849Z,50.80
2023-05-24T02:38:46.685Z,50.72
2023-05-24T02:41:17.878Z,50.20
2023-05-24T02:43:45.872Z,50.83
2023-05-24T02:46:13.728Z,50.00
2023-05-24T02:48:41.536Z,51.55
2023-05-24T02:51:10.577Z,50.45
2023-05-24T02:53:38.315Z,49.70
2023-05-24T02:56:07.380Z,49.75
2023-05-24T02:58:40.425Z,49.83
2023-05-24T03:01:08.586Z,48.85
2023-05-24T03:03:36.519Z,48.47
2023-05-24T03:06:06.961Z,47.92
2023-05-24T03:08:37.345Z,48.22
2023-05-24T03:11:05.885Z,47.42
2023-05-24T03:13:35.319Z,48.20
2023-05-24T03:16:03.240Z,46.80
2023-05-24T03:18:31.292Z,45.95
2023-05-24T03:20:59.040Z,45.72
2023-05-24T03:23:26.785Z,44.20
2023-05-24T03:25:56.198Z,43.78
2023-05-24T03:28:25.485Z,45.63
2023-05-24T03:30:54.418Z,44.83
2023-05-24T03:33:22.151Z,43.60
2023-05-24T03:35:50.375Z,42.33
2023-05-24T03:38:18.115Z,41.08
2023-05-24T03:40:48.131Z,42.85
2023-05-24T03:43:21.168Z,40.95
2023-05-24T03:45:54.422Z,39.85
2023-05-24T03:48:22.177Z,39.55
2023-05-24T03:50:52.082Z,40.60
2023-05-24T03:53:20.933Z,40.45
2023-05-24T03:55:50.929Z,38.53
2023-05-24T03:58:20.028Z,38.88
2023-05-24T04:00:48.051Z,37.65
2023-05-24T04:03:15.800Z,37.30
2023-05-24T04:05:43.609Z,36.75
2023-05-24T04:08:12.272Z,36.38
2023-05-24T04:10:40.059Z,35.78
2023-05-24T04:13:08.819Z,35.33
2023-05-24T04:15:39.026Z,34.88
2023-05-24T04:18:07.061Z,33.97
2023-05-24T04:20:35.991Z,33.72
2023-05-24T04:23:03.793Z,32.67
2023-05-24T04:25:33.350Z,33.42
2023-05-24T04:28:02.320Z,31.45
2023-05-24T04:30:31.567Z,31.48
2023-05-24T04:33:00.749Z,30.77
2023-05-24T04:35:30.121Z,30.20
2023-05-24T04:37:59.663Z,29.88
2023-05-24T04:40:27.408Z,29.48
2023-05-24T04:42:55.147Z,28.90
2023-05-24T04:45:22.913Z,28.85
2023-05-24T04:47:50.745Z,27.80
2023-05-24T04:50:19.823Z,26.65
2023-05-24T04:52:47.528Z,28.15
2023-05-24T04:55:15.367Z,26.88
2023-05-24T04:57:43.051Z,26.10
2023-05-24T05:00:11.838Z,25.08
2023-05-24T05:02:39.684Z,25.73
2023-05-24T05:05:08.309Z,24.90
2023-05-24T05:07:38.347Z,23.67
2023-05-24T05:10:07.251Z,23.85
2023-05-24T05:12:34.952Z,22.90
2023-05-24T05:15:03.016Z,23.08
2023-05-24T05:17:30.907Z,21.33
2023-05-24T05:19:58.676Z,21.75
2023-05-24T05:22:26.391Z,21.58
2023-05-24T05:24:55.414Z,20.48
2023-05-24T05:27:23.139Z,19.65
2023-05-24T05:29:51.010Z,20.17
2023-05-24T05:32:18.823Z,19.83
2023-05-24T05:34:46.551Z,19.52
2023-05-24T05:37:14.308Z,19.05
2023-05-24T05:39:42.029Z,18.60
2023-05-24T05:42:11.083Z,18.25
2023-05-24T05:44:38.808Z,17.92
2023-05-24T05:47:07.367Z,17.23
2023-05-24T05:49:36.306Z,16.77
2023-05-24T05:52:04.118Z,16.77
2023-05-24T05:54:31.820Z,16.52
2023-05-24T05:57:01.364Z,15.50
2023-05-24T05:59:30.832Z,15.73
2023-05-24T06:01:58.581Z,15.65
2023-05-24T06:04:26.356Z,14.63
2023-05-24T06:06:54.153Z,14.95
2023-05-24T06:09:21.842Z,14.75
2023-05-24T06:11:49.548Z,14.05
2023-05-24T06:14:18.164Z,14.00
2023-05-24T06:16:47.911Z,13.57
2023-05-24T06:19:16.491Z,13.50
2023-05-24T06:21:47.775Z,13.18
2023-05-24T06:24:15.917Z,12.63
2023-05-24T06:26:43.969Z,12.57
2023-05-24T06:29:11.746Z,12.25
2023-05-24T06:31:39.895Z,11.35
2023-05-24T06:34:09.003Z,11.32
2023-05-24T06:36:42.803Z,11.40
2023-05-24T06:39:11.116Z,11.55
2023-05-24T06:41:39.062Z,11.00
2023-05-24T06:44:06.858Z,10.98
2023-05-24T06:46:34.914Z,10.70
2023-05-24T06:49:03.148Z,9.82
2023-05-24T06:51:33.376Z,10.35
2023-05-24T06:54:01.533Z,10.18
2023-05-24T06:56:29.270Z,9.65
2023-05-24T06:58:57.069Z,9.10
2023-05-24T07:01:24.794Z,9.18
2023-05-24T07:03:52.673Z,8.85
2023-05-24T07:06:20.385Z,8.80
2023-05-24T07:08:49.400Z,8.32
2023-05-24T07:11:17.150Z,8.90
2023-05-24T07:13:45.027Z,8.27
2023-05-24T07:16:12.750Z,8.10
2023-05-24T07:18:41.613Z,7.93
2023-05-24T07:21:09.440Z,7.88
2023-05-24T07:23:37.871Z,7.40
2023-05-24T07:26:07.399Z,7.13
2023-05-24T07:28:37.733Z,7.15
2023-05-24T07:31:05.858Z,6.90
2023-05-24T07:33:33.584Z,7.00
2023-05-24T07:36:02.660Z,6.88
2023-05-24T07:38:31.004Z,7.05
2023-05-24T07:41:00.704Z,6.35
2023-05-24T07:43:29.769Z,6.13
2023-05-24T07:45:57.485Z,6.35
2023-05-24T07:48:25.885Z,6.20
2023-05-24T07:50:54.982Z,6.10
2023-05-24T07:53:23.356Z,6.30
2023-05-24T07:55:51.672Z,6.32
2023-05-24T07:58:19.585Z,5.63
2023-05-24T08:00:48.743Z,5.75
2023-05-24T08:03:17.762Z,5.32
2023-05-24T08:05:45.851Z,5.55
2023-05-24T08:08:13.905Z,5.38
2023-05-24T08:10:41.801Z,5.25
2023-05-24T08:13:09.555Z,5.30
2023-05-24T08:15:37.302Z,4.80
2023-05-24T08:18:06.396Z,4.78
2023-05-24T08:20:36.103Z,4.85
2023-05-24T08:23:03.999Z,4.72
2023-05-24T08:25:31.721Z,4.70
2023-05-24T08:27:59.513Z,4.38
2023-05-24T08:30:27.282Z,4.57
2023-05-24T08:32:55.034Z,4.50
2023-05-24T08:35:24.109Z,4.60
2023-05-24T08:37:52.153Z,4.32
2023-05-24T08:40:20.013Z,4.38
2023-05-24T08:42:48.075Z,4.47
2023-05-24T08:45:16.386Z,4.25
2023-05-24T08:47:44.193Z,4.20
2023-05-24T08:50:12.685Z,3.90
2023-05-24T08:52:41.775Z,4.18
2023-05-24T08:55:10.318Z,4.07
2023-05-24T08:57:39.823Z,4.35
2023-05-24T09:00:10.175Z,3.90
2023-05-24T09:02:38.588Z,3.55
2023-05-24T09:05:07.152Z,3.47
2023-05-24T09:07:35.601Z,3.55
2023-05-24T09:10:05.996Z,3.60
2023-05-24T09:12:38.269Z,3.78
2023-05-24T09:15:08.462Z,3.47
2023-05-24T09:17:36.816Z,3.45
2023-05-24T09:20:08.810Z,3.42
2023-05-24T09:22:40.361Z,3.47
2023-05-24T09:25:11.364Z,3.50
2023-05-24T09:27:39.391Z,3.30
2023-05-24T09:30:10.608Z,3.40
2023-05-24T09:32:38.680Z,3.20
2023-05-24T09:35:09.645Z,3.03
2023-05-24T09:37:38.429Z,3.22
2023-05-24T09:40:08.960Z,3.10
2023-05-24T09:42:38.362Z,3.05
2023-05-24T09:45:09.076Z,3.42
2023-05-24T09:47:37.467Z,2.90
2023-05-24T09:50:06.742Z,3.30
2023-05-24T09:52:37.322Z,3.03
2023-05-24T09:55:12.708Z,2.75
2023-05-24T09:57:41.864Z,2.95
2023-05-24T10:00:17.012Z,2.72
2023-05-24T10:05:19.572Z,2.95
2023-05-24T10:07:47.356Z,2.95
2023-05-24T10:10:15.116Z,2.92
2023-05-24T10:12:46.670Z,2.72
2023-05-24T10:15:14.616Z,3.10
2023-05-24T10:17:42.524Z,2.70
2023-05-24T10:20:12.352Z,3.05
2023-05-24T10:22:42.765Z,2.60
2023-05-24T10:25:12.408Z,3.10
2023-05-24T10:27:40.177Z,2.55
2023-05-24T10:30:14.127Z,2.67
2023-05-24T10:32:42.108Z,2.60
2023-05-24T10:35:12.132Z,2.80
2023-05-24T10:37:39.912Z,2.67
2023-05-24T10:40:09.982Z,2.67
2023-05-24T10:42:37.993Z,2.67
2023-05-24T10:45:32.725Z,2.60
2023-05-24T10:48:03.459Z,2.53
2023-05-24T10:50:31.280Z,2.72
2023-05-24T10:53:12.430Z,2.67
2023-05-24T10:55:53.013Z,4.10
2023-05-24T10:58:21.131Z,3.78
2023-05-24T11:00:53.307Z,3.67
2023-05-24T11:03:24.768Z,3.50
2023-05-24T11:05:54.474Z,3.50
2023-05-24T11:08:24.744Z,3.35
2023-05-24T11:10:52.995Z,3.20
2023-05-24T11:13:21.616Z,3.53
2023-05-24T11:15:53.992Z,3.80
2023-05-24T11:18:23.685Z,6.82
2023-05-24T11:20:51.655Z,4.25
2023-05-24T11:23:20.323Z,3.95
2023-05-24T11:25:48.643Z,3.97
2023-05-24T11:28:16.492Z,3.90
2023-05-24T11:30:44.964Z,3.95
2023-05-24T11:33:18.572Z,4.05
2023-05-24T11:35:46.474Z,4.05
2023-05-24T11:38:14.696Z,3.55
2023-05-24T11:40:44.945Z,3.90
2023-05-24T11:43:16.686Z,4.13
2023-05-24T11:45:45.403Z,3.70
2023-05-24T11:48:13.224Z,3.85
2023-05-24T11:50:49.180Z,4.18
2023-05-24T11:53:19.954Z,4.05
2023-05-24T11:55:48.670Z,3.95
2023-05-24T11:58:20.498Z,4.28
2023-05-24T12:00:48.413Z,4.53
2023-05-24T12:03:17.238Z,4.30
2023-05-24T12:05:46.423Z,3.75
2023-05-24T12:08:15.424Z,4.10
2023-05-24T12:10:44.003Z,4.13
2023-05-24T12:13:21.470Z,3.92
2023-05-24T12:15:52.677Z,3.95
2023-05-24T12:18:23.164Z,4.00
2023-05-24T12:20:52.294Z,3.40
2023-05-24T12:23:21.546Z,4.38
2023-05-24T12:25:50.040Z,4.60
2023-05-24T12:28:21.646Z,4.40
2023-05-24T12:30:50.586Z,4.00
2023-05-24T12:33:19.717Z,4.10
2023-05-24T12:35:47.715Z,3.85
2023-05-24T12:38:19.895Z,4.07
2023-05-24T12:40:57.065Z,3.88
2023-05-24T12:43:35.861Z,3.65
2023-05-24T12:46:03.591Z,4.32
2023-05-24T14:20:10.540Z,4.60
2023-05-24T14:22:38.300Z,3.70
2023-05-24T14:25:07.929Z,4.07
2023-05-24T14:27:35.653Z,4.03
2023-05-24T14:30:03.431Z,4.57
2023-05-24T14:32:31.224Z,4.30
2023-05-24T14:34:59.394Z,4.20
2023-05-24T14:37:28.450Z,3.70
2023-05-24T14:39:56.214Z,3.42
2023-05-24T14:42:23.949Z,3.60
2023-05-24T14:44:51.664Z,4.40
2023-05-24T14:47:19.519Z,4.47
2023-05-24T14:49:47.207Z,4.60
2023-05-24T14:52:14.922Z,4.50
2023-05-24T14:54:43.958Z,4.45
2023-05-24T14:57:12.085Z,4.68
2023-05-24T14:59:39.758Z,4.18
2023-05-24T15:02:07.558Z,4.22
2023-05-24T15:04:35.344Z,4.82
2023-05-24T15:07:03.075Z,4.28
2023-05-24T15:09:30.775Z,4.55
2023-05-24T15:12:00.186Z,4.55
2023-05-24T15:14:27.977Z,4.60
2023-05-24T15:16:55.726Z,4.30
2023-05-24T15:19:23.492Z,3.80
2023-05-24T15:21:51.224Z,3.95
2023-05-24T15:24:18.922Z,4.47
2023-05-24T15:26:47.209Z,3.97
2023-05-24T15:29:17.121Z,4.50
2023-05-24T15:31:44.955Z,4.13
2023-05-24T15:34:12.663Z,4.03
2023-05-24T15:36:41.286Z,3.88
2023-05-24T15:39:09.479Z,4.63
2023-05-24T15:41:38.197Z,4.30
2023-05-24T15:44:08.737Z,3.97
2023-05-24T15:46:37.970Z,4.07
2023-05-24T15:49:05.814Z,3.47
2023-05-24T15:52:02.759Z,4.82
2023-05-24T15:54:21.273Z,4.10
2023-05-24T15:56:49.883Z,4.30
2023-05-24T15:59:19.063Z,4.40
2023-05-24T16:01:49.428Z,4.78
2023-05-24T16:04:17.248Z,4.28
2023-05-24T16:06:45.073Z,16.10
2023-05-24T16:09:12.820Z,6.03
2023-05-24T16:11:40.835Z,7.78
2023-05-24T16:14:08.531Z,5.82
2023-05-24T16:16:36.722Z,5.45
2023-05-24T16:19:05.815Z,5.80
2023-05-24T16:21:33.620Z,5.25
2023-05-24T16:24:03.237Z,5.78
2023-05-24T16:26:32.051Z,5.90
2023-05-24T16:28:59.940Z,4.63
2023-05-24T16:31:27.823Z,4.50
2023-05-24T16:33:55.546Z,4.50
2023-05-24T16:36:25.003Z,4.75
2023-05-24T16:38:52.729Z,4.47
2023-05-24T16:41:20.448Z,4.97
2023-05-24T16:43:48.171Z,5.10
2023-05-24T16:46:15.962Z,5.20
2023-05-24T16:48:43.842Z,4.43
2023-05-24T16:51:11.576Z,4.38
2023-05-24T16:53:40.661Z,5.00
2023-05-24T16:56:08.356Z,5.00
2023-05-24T16:58:37.181Z,5.20
2023-05-24T17:01:04.942Z,5.07
2023-05-24T17:03:33.988Z,6.07
2023-05-24T17:06:04.007Z,5.93
2023-05-24T17:08:33.905Z,6.05
2023-05-24T17:11:02.944Z,8.95
2023-05-24T17:13:30.752Z,6.40
2023-05-24T17:15:59.702Z,5.13
2023-05-24T17:18:30.301Z,5.22
2023-05-24T17:20:58.352Z,5.10
2023-05-24T17:23:26.304Z,17.13
2023-05-24T17:25:55.327Z,6.38
2023-05-24T17:28:27.308Z,6.53
2023-05-24T17:30:55.214Z,6.30
2023-05-24T17:33:23.143Z,6.32
2023-05-24T17:35:51.108Z,5.40
2023-05-24T17:38:19.116Z,5.65
2023-05-24T17:40:47.748Z,5.10
2023-05-24T17:43:15.676Z,5.50
2023-05-24T17:45:45.045Z,4.75
2023-05-24T17:48:13.072Z,5.82
2023-05-24T17:50:40.909Z,5.18
2023-05-24T17:53:18.965Z,5.45
2023-05-24T17:55:56.436Z,4.90
2023-05-24T17:58:24.485Z,4.70
2023-05-24T18:00:53.753Z,5.20
2023-05-24T18:03:21.575Z,4.38
2023-05-24T18:05:49.358Z,4.38
2023-05-24T18:08:17.162Z,4.93
2023-05-24T18:10:45.254Z,5.40
2023-05-24T18:13:13.104Z,4.38
2023-05-24T18:15:41.012Z,4.90
2023-05-24T18:18:10.203Z,6.05
2023-05-24T18:20:38.137Z,6.35
2023-05-24T18:23:05.977Z,6.05
2023-05-24T18:25:33.793Z,4.97
2023-05-24T18:28:01.669Z,4.93
2023-05-24T18:30:29.421Z,5.20
2023-05-24T18:33:07.211Z,10.68
2023-05-24T18:35:37.408Z,5.93
2023-05-24T18:38:05.328Z,4.95
2023-05-24T18:40:33.179Z,18.05
2023-05-24T18:43:00.920Z,5.40
2023-05-24T18:45:28.683Z,4.88
2023-05-24T18:47:56.550Z,5.50
2023-05-24T18:50:24.417Z,18.10
2023-05-24T18:52:53.521Z,6.43
2023-05-24T18:55:21.234Z,6.10
2023-05-24T18:57:49.113Z,6.25
2023-05-24T19:00:19.235Z,7.53
2023-05-24T19:02:47.081Z,5.85
2023-05-24T19:05:15.496Z,5.65
2023-05-24T19:07:43.328Z,5.15
2023-05-24T19:10:13.757Z,5.25
2023-05-24T19:12:41.605Z,5.00
2023-05-24T19:15:09.870Z,4.68
2023-05-24T19:17:37.757Z,4.90
2023-05-24T19:20:07.199Z,4.43
2023-05-24T19:22:35.005Z,5.50
2023-05-24T19:25:02.753Z,4.93
2023-05-24T19:27:31.820Z,4.70
2023-05-24T19:30:00.039Z,3.90
2023-05-24T19:32:28.037Z,4.13
2023-05-24T19:34:55.894Z,4.40
2023-05-24T19:37:23.688Z,4.25
2023-05-24T19:39:52.259Z,4.82
2023-05-24T19:42:19.995Z,4.47
2023-05-24T19:44:49.024Z,4.13
2023-05-24T19:47:16.786Z,4.60
2023-05-24T19:49:44.517Z,4.00
2023-05-24T19:52:14.217Z,4.05
2023-05-24T19:54:41.997Z,4.20
2023-05-24T19:57:09.832Z,4.13
2023-05-24T19:59:37.705Z,4.15
2023-05-24T20:02:07.452Z,4.57
2023-05-24T20:04:35.363Z,4.15
2023-05-24T20:07:03.260Z,3.88
2023-05-24T20:09:31.019Z,4.10
2023-05-24T20:11:58.809Z,4.32
2023-05-24T20:14:28.003Z,4.18
2023-05-24T20:16:56.073Z,4.40
2023-05-24T20:19:26.148Z,4.35
2023-05-24T20:21:53.959Z,4.22
2023-05-24T20:24:21.653Z,3.85
2023-05-24T20:26:49.366Z,4.18
2023-05-24T20:29:17.154Z,3.70
2023-05-24T20:31:46.915Z,3.90
2023-05-24T20:34:14.658Z,4.35
2023-05-24T20:36:44.061Z,3.92
2023-05-24T20:39:12.186Z,3.95
2023-05-24T20:41:39.958Z,4.10
2023-05-24T20:44:07.695Z,4.35
2023-05-24T20:46:36.547Z,4.32
2023-05-24T20:49:04.340Z,3.95
2023-05-24T20:51:32.043Z,3.80
2023-05-24T20:54:01.134Z,4.32
2023-05-24T20:56:28.844Z,4.45
2023-05-24T20:58:59.720Z,4.35
2023-05-24T21:01:27.621Z,4.13
2023-05-24T21:03:56.522Z,4.45
2023-05-24T21:06:24.356Z,4.13
2023-05-24T21:08:52.138Z,4.05
2023-05-24T21:11:21.528Z,4.13
2023-05-24T21:13:49.291Z,4.50
2023-05-24T21:16:17.005Z,4.13
2023-05-24T21:18:44.722Z,4.05
2023-05-24T21:21:12.410Z,3.58
2023-05-24T21:23:40.089Z,4.32
2023-05-24T21:26:07.950Z,3.55
2023-05-24T21:28:37.006Z,4.13
2023-05-24T21:31:05.305Z,3.85
2023-05-24T21:33:33.059Z,3.40
2023-05-24T21:36:03.015Z,3.80
2023-05-24T21:38:30.919Z,3.85
2023-05-24T21:40:58.695Z,2.83
2023-05-24T21:43:26.411Z,3.30
2023-05-24T21:45:55.436Z,3.38
2023-05-24T21:48:23.153Z,3.65
2023-05-24T21:50:50.913Z,3.72
2023-05-24T21:53:18.665Z,3.47
2023-05-24T21:55:46.552Z,3.42
2023-05-24T21:58:14.333Z,3.60
2023-05-24T22:00:42.100Z,3.33
2023-05-24T22:03:11.257Z,3.53
2023-05-24T22:05:39.146Z,3.30
2023-05-24T22:08:06.930Z,3.13
2023-05-24T22:10:34.769Z,3.22
2023-05-24T22:13:02.615Z,3.10
2023-05-24T22:15:31.077Z,2.97
2023-05-24T22:18:01.399Z,3.05
2023-05-24T22:20:31.771Z,3.25
2023-05-24T22:23:00.197Z,3.15
2023-05-24T22:25:28.018Z,3.05
2023-05-24T22:27:56.553Z,3.25
2023-05-24T22:30:24.644Z,3.33
2023-05-24T22:32:52.452Z,3.67
2023-05-24T22:35:20.324Z,3.22
2023-05-24T22:37:49.451Z,3.45
2023-05-24T22:40:18.010Z,2.85
2023-05-24T22:42:46.021Z,3.03
2023-05-24T22:45:13.927Z,3.70
2023-05-24T22:47:41.723Z,3.10
2023-05-24T22:50:10.139Z,2.88
2023-05-24T22:52:42.263Z,3.20
2023-05-24T22:55:11.674Z,3.22
2023-05-24T22:57:39.390Z,3.47
2023-05-24T23:00:08.530Z,3.20
2023-05-24T23:02:37.082Z,3.05
2023-05-24T23:05:05.657Z,3.20
2023-05-24T23:07:33.384Z,3.40
2023-05-24T23:10:01.205Z,3.28
2023-05-24T23:12:30.238Z,3.22
2023-05-24T23:14:59.375Z,3.42
2023-05-24T23:17:27.190Z,3.35
2023-05-24T23:19:54.978Z,3.40
2023-05-24T23:22:23.764Z,3.67
2023-05-24T23:24:51.640Z,3.60
2023-05-24T23:27:19.402Z,3.30
2023-05-24T23:29:48.444Z,3.60
2023-05-24T23:32:16.207Z,3.17
2023-05-24T23:34:43.912Z,3.33
2023-05-24T23:37:11.674Z,3.50
2023-05-24T23:39:39.398Z,3.53
2023-05-24T23:42:07.527Z,3.30
2023-05-24T23:44:36.134Z,3.92
2023-05-24T23:47:05.635Z,3.35
2023-05-24T23:49:33.424Z,3.30
2023-05-24T23:52:01.154Z,3.60
2023-05-24T23:54:28.845Z,3.30
2023-05-24T23:56:56.536Z,3.50
2023-05-24T23:59:24.239Z,3.50
